createdAt,value
2018-01-05T00:00:30.252Z,980.23
2018-01-05T00:01:30.264Z,980.22
2018-01-05T00:02:30.276Z,980.22
2018-01-05T00:03:30.289Z,980.19
2018-01-05T00:04:30.306Z,980.18
2018-01-05T00:05:30.318Z,980.1
2018-01-05T00:06:30.361Z,980.12
2018-01-05T00:07:30.344Z,980.13
2018-01-05T00:08:30.356Z,980.12
2018-01-05T00:09:30.371Z,980.15
2018-01-05T00:10:30.382Z,980.2
2018-01-05T00:11:30.395Z,980.24
2018-01-05T00:12:30.408Z,980.33
2018-01-05T00:13:30.422Z,980.32
2018-01-05T00:14:30.439Z,980.32
2018-01-05T00:15:30.449Z,980.36
2018-01-05T00:16:30.464Z,980.35
2018-01-05T00:17:30.475Z,980.34
2018-01-05T00:18:30.488Z,980.35
2018-01-05T00:19:30.501Z,980.35
2018-01-05T00:20:30.515Z,980.42
2018-01-05T00:21:30.528Z,980.37
2018-01-05T00:22:30.541Z,980.42
2018-01-05T00:23:30.555Z,980.39
2018-01-05T00:24:30.569Z,980.41
2018-01-05T00:25:30.583Z,980.45
2018-01-05T00:26:30.594Z,980.5
2018-01-05T00:27:30.608Z,980.48
2018-01-05T00:28:30.620Z,980.49
2018-01-05T00:29:30.637Z,980.52
2018-01-05T00:30:30.647Z,980.54
2018-01-05T00:31:30.674Z,980.57
2018-01-05T00:32:30.673Z,980.64
2018-01-05T00:33:30.686Z,980.64
2018-01-05T00:34:30.701Z,980.69
2018-01-05T00:35:30.718Z,980.74
2018-01-05T00:36:30.727Z,980.76
2018-01-05T00:37:30.744Z,980.83
2018-01-05T00:38:30.807Z,980.77
2018-01-05T00:39:30.769Z,980.79
2018-01-05T00:40:30.781Z,980.82
2018-01-05T00:41:30.797Z,980.86
2018-01-05T00:42:30.809Z,980.97
2018-01-05T00:43:30.821Z,980.97
2018-01-05T00:44:30.835Z,981.02
2018-01-05T00:45:30.850Z,981.07
2018-01-05T00:46:30.861Z,981.02
2018-01-05T00:47:30.874Z,981.07
2018-01-05T00:48:30.938Z,981.13
2018-01-05T00:49:30.902Z,981.17
2018-01-05T00:50:30.956Z,981.27
2018-01-05T00:51:30.928Z,981.33
2018-01-05T00:52:30.941Z,981.41
2018-01-05T00:53:30.956Z,981.39
2018-01-05T00:54:30.968Z,981.46
2018-01-05T00:55:30.983Z,981.46
2018-01-05T00:56:30.994Z,981.51
2018-01-05T00:57:31.008Z,981.54
2018-01-05T00:58:31.072Z,981.57
2018-01-05T00:59:31.035Z,981.61
2018-01-05T01:00:31.050Z,981.58
2018-01-05T01:01:31.062Z,981.54
2018-01-05T01:02:31.115Z,981.64
2018-01-05T01:03:31.089Z,981.67
2018-01-05T01:04:31.103Z,981.71
2018-01-05T01:05:31.114Z,981.77
2018-01-05T01:06:31.129Z,981.78
2018-01-05T01:07:31.141Z,981.84
2018-01-05T01:08:31.155Z,981.79
2018-01-05T01:09:31.169Z,981.84
2018-01-05T01:10:31.182Z,981.91
2018-01-05T01:11:31.196Z,981.91
2018-01-05T01:12:31.209Z,981.95
2018-01-05T01:13:31.222Z,982.01
2018-01-05T01:14:31.237Z,981.96
2018-01-05T01:15:31.250Z,982
2018-01-05T01:16:31.262Z,981.95
2018-01-05T01:17:31.277Z,982.06
2018-01-05T01:18:31.339Z,982.01
2018-01-05T01:19:31.301Z,982.04
2018-01-05T01:20:31.315Z,982.03
2018-01-05T01:21:31.330Z,982.06
2018-01-05T01:22:31.341Z,982.08
2018-01-05T01:23:31.362Z,982.08
2018-01-05T01:24:31.369Z,982.07
2018-01-05T01:25:31.382Z,982.07
2018-01-05T01:26:31.396Z,982.1
2018-01-05T01:27:31.411Z,982.16
2018-01-05T01:28:31.426Z,982.15
2018-01-05T01:29:31.444Z,982.19
2018-01-05T01:30:31.453Z,982.2
2018-01-05T01:31:31.462Z,982.22
2018-01-05T01:32:31.476Z,982.29
2018-01-05T01:33:31.496Z,982.27
2018-01-05T01:34:31.508Z,982.29
2018-01-05T01:35:31.516Z,982.31
2018-01-05T01:36:31.533Z,982.33
2018-01-05T01:37:31.543Z,982.38
2018-01-05T01:38:31.555Z,982.35
2018-01-05T01:39:31.570Z,982.39
2018-01-05T01:40:31.582Z,982.4
2018-01-05T01:41:31.596Z,982.43
2018-01-05T01:42:31.610Z,982.48
2018-01-05T01:43:31.624Z,982.49
2018-01-05T01:44:31.637Z,982.54
2018-01-05T01:45:31.651Z,982.52
2018-01-05T01:46:31.662Z,982.5
2018-01-05T01:47:31.677Z,982.54
2018-01-05T01:48:31.690Z,982.54
2018-01-05T01:49:31.704Z,982.56
2018-01-05T01:50:31.716Z,982.54
2018-01-05T01:51:31.766Z,982.56
2018-01-05T01:52:31.742Z,982.63
2018-01-05T01:53:31.755Z,982.54
2018-01-05T01:54:31.771Z,982.66
2018-01-05T01:55:31.783Z,982.6
2018-01-05T01:56:31.796Z,982.55
2018-01-05T01:57:31.810Z,982.55
2018-01-05T01:58:31.826Z,982.54
2018-01-05T01:59:31.836Z,982.51
2018-01-05T02:00:31.849Z,982.53
2018-01-05T02:01:31.863Z,982.57
2018-01-05T02:02:31.877Z,982.61
2018-01-05T02:03:31.889Z,982.54
2018-01-05T02:04:31.902Z,982.46
2018-01-05T02:05:31.915Z,982.54
2018-01-05T02:06:31.930Z,982.49
2018-01-05T02:07:31.943Z,982.53
2018-01-05T02:08:31.962Z,982.54
2018-01-05T02:09:31.970Z,982.55
2018-01-05T02:10:31.983Z,982.5
2018-01-05T02:11:31.997Z,982.55
2018-01-05T02:12:32.011Z,982.6
2018-01-05T02:13:32.034Z,982.64
2018-01-05T02:14:32.037Z,982.62
2018-01-05T02:15:32.051Z,982.65
2018-01-05T02:16:32.064Z,982.63
2018-01-05T02:17:32.078Z,982.72
2018-01-05T02:18:32.090Z,982.73
2018-01-05T02:19:32.104Z,982.79
2018-01-05T02:20:32.117Z,982.78
2018-01-05T02:21:32.130Z,982.8
2018-01-05T02:22:32.143Z,982.86
2018-01-05T02:23:32.160Z,982.86
2018-01-05T02:24:32.173Z,982.79
2018-01-05T02:25:32.184Z,982.8
2018-01-05T02:26:32.197Z,982.85
2018-01-05T02:27:32.210Z,982.86
2018-01-05T02:28:32.223Z,982.86
2018-01-05T02:29:32.237Z,982.87
2018-01-05T02:30:32.252Z,982.9
2018-01-05T02:31:32.264Z,982.9
2018-01-05T02:32:32.276Z,982.94
2018-01-05T02:33:32.290Z,982.95
2018-01-05T02:34:32.304Z,982.95
2018-01-05T02:35:32.318Z,983.02
2018-01-05T02:36:32.329Z,983.09
2018-01-05T02:37:32.342Z,983.04
2018-01-05T02:38:32.356Z,983.07
2018-01-05T02:39:32.371Z,983.03
2018-01-05T02:40:32.382Z,983.08
2018-01-05T02:41:32.404Z,983.09
2018-01-05T02:42:32.409Z,983.05
2018-01-05T02:43:32.423Z,983.11
2018-01-05T02:44:32.435Z,983.15
2018-01-05T02:45:32.448Z,983.09
2018-01-05T02:46:32.462Z,983.06
2018-01-05T02:47:32.475Z,983.04
2018-01-05T02:48:32.489Z,983.06
2018-01-05T02:49:32.502Z,983.19
2018-01-05T02:50:32.523Z,983.19
2018-01-05T02:51:32.527Z,983.16
2018-01-05T02:52:32.542Z,983.16
2018-01-05T02:53:32.554Z,983.22
2018-01-05T02:54:32.568Z,983.22
2018-01-05T02:55:32.582Z,983.29
2018-01-05T02:56:32.594Z,983.29
2018-01-05T02:57:32.608Z,983.37
2018-01-05T02:58:32.626Z,983.24
2018-01-05T02:59:32.632Z,983.36
2018-01-05T03:00:32.647Z,983.32
2018-01-05T03:01:32.662Z,983.35
2018-01-05T03:02:32.673Z,983.39
2018-01-05T03:03:32.686Z,983.39
2018-01-05T03:04:32.750Z,983.33
2018-01-05T03:05:32.711Z,983.39
2018-01-05T03:06:32.728Z,983.4
2018-01-05T03:07:32.740Z,983.48
2018-01-05T03:08:32.753Z,983.47
2018-01-05T03:09:32.764Z,983.55
2018-01-05T03:10:32.781Z,983.41
2018-01-05T03:11:32.794Z,983.45
2018-01-05T03:12:32.808Z,983.52
2018-01-05T03:13:32.819Z,983.49
2018-01-05T03:14:32.880Z,983.48
2018-01-05T03:15:32.844Z,983.52
2018-01-05T03:16:32.857Z,983.57
2018-01-05T03:17:32.870Z,983.51
2018-01-05T03:18:32.883Z,983.53
2018-01-05T03:19:32.899Z,983.49
2018-01-05T03:20:32.909Z,983.44
2018-01-05T03:21:32.924Z,983.44
2018-01-05T03:22:32.937Z,983.45
2018-01-05T03:23:32.950Z,983.46
2018-01-05T03:24:32.962Z,983.49
2018-01-05T03:25:32.975Z,983.53
2018-01-05T03:26:32.988Z,983.63
2018-01-05T03:27:33.001Z,983.68
2018-01-05T03:28:33.013Z,983.64
2018-01-05T03:29:33.027Z,983.64
2018-01-05T03:30:33.043Z,983.64
2018-01-05T03:31:33.054Z,983.66
2018-01-05T03:32:33.067Z,983.67
2018-01-05T03:33:33.085Z,983.67
2018-01-05T03:34:33.142Z,983.68
2018-01-05T03:35:33.105Z,983.64
2018-01-05T03:36:33.118Z,983.64
2018-01-05T03:37:33.132Z,983.6
2018-01-05T03:38:33.152Z,983.62
2018-01-05T03:39:33.207Z,983.58
2018-01-05T03:40:33.171Z,983.65
2018-01-05T03:41:33.183Z,983.62
2018-01-05T03:42:33.197Z,983.67
2018-01-05T03:43:33.210Z,983.64
2018-01-05T03:44:33.223Z,983.67
2018-01-05T03:45:33.236Z,983.7
2018-01-05T03:46:33.251Z,983.77
2018-01-05T03:47:33.263Z,983.71
2018-01-05T03:48:33.276Z,983.81
2018-01-05T03:49:33.289Z,983.78
2018-01-05T03:50:33.301Z,983.78
2018-01-05T03:51:33.315Z,983.77
2018-01-05T03:52:33.329Z,983.76
2018-01-05T03:53:33.340Z,983.73
2018-01-05T03:54:33.355Z,983.75
2018-01-05T03:55:33.367Z,983.8
2018-01-05T03:56:33.379Z,983.82
2018-01-05T03:57:33.392Z,983.78
2018-01-05T03:58:33.410Z,983.8
2018-01-05T03:59:33.419Z,983.77
2018-01-05T04:00:33.431Z,983.76
2018-01-05T04:01:33.447Z,983.69
2018-01-05T04:02:33.457Z,983.65
2018-01-05T04:03:33.470Z,983.66
2018-01-05T04:04:33.482Z,983.6
2018-01-05T04:05:33.496Z,983.65
2018-01-05T04:06:33.511Z,983.73
2018-01-05T04:07:33.521Z,983.7
2018-01-05T04:08:33.535Z,983.79
2018-01-05T04:09:33.548Z,983.67
2018-01-05T04:10:33.562Z,983.69
2018-01-05T04:11:33.575Z,983.64
2018-01-05T04:12:33.587Z,983.58
2018-01-05T04:13:33.600Z,983.59
2018-01-05T04:14:33.613Z,983.69
2018-01-05T04:15:33.627Z,983.74
2018-01-05T04:16:33.638Z,983.68
2018-01-05T04:17:33.651Z,983.72
2018-01-05T04:18:33.664Z,983.63
2018-01-05T04:19:33.677Z,983.7
2018-01-05T04:20:33.690Z,983.73
2018-01-05T04:21:33.702Z,983.7
2018-01-05T04:22:33.716Z,983.7
2018-01-05T04:23:33.729Z,983.78
2018-01-05T04:24:33.743Z,983.81
2018-01-05T04:25:33.754Z,983.83
2018-01-05T04:26:33.767Z,983.87
2018-01-05T04:27:33.781Z,983.9
2018-01-05T04:28:33.793Z,983.88
2018-01-05T04:29:33.807Z,983.91
2018-01-05T04:30:33.818Z,983.83
2018-01-05T04:31:33.831Z,983.89
2018-01-05T04:32:33.848Z,983.94
2018-01-05T04:33:33.857Z,983.96
2018-01-05T04:34:33.870Z,983.97
2018-01-05T04:35:33.885Z,983.93
2018-01-05T04:36:33.896Z,983.87
2018-01-05T04:37:33.911Z,983.82
2018-01-05T04:38:33.920Z,983.8
2018-01-05T04:39:33.934Z,983.78
2018-01-05T04:40:33.949Z,983.86
2018-01-05T04:41:33.960Z,983.79
2018-01-05T04:42:33.974Z,983.81
2018-01-05T04:43:33.986Z,983.79
2018-01-05T04:44:33.998Z,983.79
2018-01-05T04:45:34.012Z,983.76
2018-01-05T04:46:34.025Z,983.74
2018-01-05T04:47:34.038Z,983.74
2018-01-05T04:48:34.051Z,983.74
2018-01-05T04:49:34.063Z,983.78
2018-01-05T04:50:34.076Z,983.77
2018-01-05T04:51:34.088Z,983.73
2018-01-05T04:52:34.101Z,983.71
2018-01-05T04:53:34.115Z,983.71
2018-01-05T04:54:34.128Z,983.71
2018-01-05T04:55:34.140Z,983.66
2018-01-05T04:56:34.152Z,983.67
2018-01-05T04:57:34.166Z,983.73
2018-01-05T04:58:34.179Z,983.72
2018-01-05T04:59:34.191Z,983.69
2018-01-05T05:00:34.205Z,983.61
2018-01-05T05:01:34.218Z,983.66
2018-01-05T05:02:34.229Z,983.69
2018-01-05T05:03:34.246Z,983.7
2018-01-05T05:04:34.256Z,983.72
2018-01-05T05:05:34.270Z,983.67
2018-01-05T05:06:34.282Z,983.72
2018-01-05T05:07:34.294Z,983.73
2018-01-05T05:08:34.307Z,983.82
2018-01-05T05:09:34.320Z,983.85
2018-01-05T05:10:34.332Z,983.86
2018-01-05T05:11:34.347Z,983.92
2018-01-05T05:12:34.359Z,983.87
2018-01-05T05:13:34.371Z,983.91
2018-01-05T05:14:34.384Z,983.91
2018-01-05T05:15:34.399Z,983.92
2018-01-05T05:16:34.410Z,983.98
2018-01-05T05:17:34.421Z,983.94
2018-01-05T05:18:34.435Z,983.91
2018-01-05T05:19:34.450Z,983.9
2018-01-05T05:20:34.461Z,983.88
2018-01-05T05:21:34.477Z,983.86
2018-01-05T05:22:34.487Z,983.87
2018-01-05T05:23:34.504Z,983.85
2018-01-05T05:24:34.513Z,983.81
2018-01-05T05:25:34.527Z,983.87
2018-01-05T05:26:34.539Z,983.83
2018-01-05T05:27:34.552Z,983.84
2018-01-05T05:28:34.563Z,983.87
2018-01-05T05:29:34.578Z,983.88
2018-01-05T05:30:34.590Z,983.85
2018-01-05T05:31:34.603Z,983.86
2018-01-05T05:32:34.617Z,983.9
2018-01-05T05:33:34.629Z,983.93
2018-01-05T05:34:34.641Z,983.96
2018-01-05T05:35:34.654Z,984
2018-01-05T05:36:34.667Z,984
2018-01-05T05:37:34.679Z,984.02
2018-01-05T05:38:34.693Z,984.12
2018-01-05T05:39:34.705Z,984.19
2018-01-05T05:40:34.720Z,984.17
2018-01-05T05:41:34.731Z,984.14
2018-01-05T05:42:34.742Z,984.15
2018-01-05T05:43:34.756Z,984.2
2018-01-05T05:44:34.769Z,984.1
2018-01-05T05:45:34.783Z,984.09
2018-01-05T05:46:34.794Z,984.07
2018-01-05T05:47:34.807Z,984.08
2018-01-05T05:48:34.820Z,984.09
2018-01-05T05:49:34.834Z,984.07
2018-01-05T05:50:34.850Z,984.1
2018-01-05T05:51:34.861Z,984.09
2018-01-05T05:52:34.873Z,984
2018-01-05T05:53:34.884Z,983.95
2018-01-05T05:54:34.897Z,983.97
2018-01-05T05:55:34.910Z,983.99
2018-01-05T05:56:34.928Z,984
2018-01-05T05:57:34.935Z,983.99
2018-01-05T05:58:34.949Z,983.96
2018-01-05T05:59:34.963Z,983.95
2018-01-05T06:00:34.975Z,984.05
2018-01-05T06:01:34.987Z,984.03
2018-01-05T06:02:34.999Z,984.02
2018-01-05T06:03:35.012Z,984.05
2018-01-05T06:04:35.025Z,984.11
2018-01-05T06:05:35.044Z,984.19
2018-01-05T06:06:35.051Z,984.24
2018-01-05T06:07:35.066Z,984.25
2018-01-05T06:08:35.078Z,984.28
2018-01-05T06:09:35.089Z,984.26
2018-01-05T06:10:35.103Z,984.24
2018-01-05T06:11:35.116Z,984.27
2018-01-05T06:12:35.137Z,984.32
2018-01-05T06:13:35.140Z,984.26
2018-01-05T06:14:35.158Z,984.27
2018-01-05T06:15:35.169Z,984.32
2018-01-05T06:16:35.179Z,984.28
2018-01-05T06:17:35.193Z,984.27
2018-01-05T06:18:35.205Z,984.27
2018-01-05T06:19:35.217Z,984.27
2018-01-05T06:20:35.231Z,984.26
2018-01-05T06:21:35.243Z,984.25
2018-01-05T06:22:35.257Z,984.27
2018-01-05T06:23:35.311Z,984.25
2018-01-05T06:24:35.282Z,984.33
2018-01-05T06:25:35.294Z,984.32
2018-01-05T06:26:35.307Z,984.3
2018-01-05T06:27:35.319Z,984.33
2018-01-05T06:28:35.336Z,984.29
2018-01-05T06:29:35.347Z,984.26
2018-01-05T06:30:35.408Z,984.28
2018-01-05T06:31:35.375Z,984.24
2018-01-05T06:32:35.384Z,984.29
2018-01-05T06:33:35.398Z,984.27
2018-01-05T06:34:35.409Z,984.39
2018-01-05T06:35:35.446Z,984.32
2018-01-05T06:36:35.435Z,984.36
2018-01-05T06:37:35.448Z,984.34
2018-01-05T06:38:35.460Z,984.29
2018-01-05T06:39:35.472Z,984.33
2018-01-05T06:40:35.486Z,984.32
2018-01-05T06:41:35.499Z,984.31
2018-01-05T06:42:35.512Z,984.34
2018-01-05T06:43:35.525Z,984.35
2018-01-05T06:44:35.538Z,984.34
2018-01-05T06:45:35.551Z,984.41
2018-01-05T06:46:35.563Z,984.37
2018-01-05T06:47:35.577Z,984.33
2018-01-05T06:48:35.592Z,984.3
2018-01-05T06:49:35.603Z,984.35
2018-01-05T06:50:35.615Z,984.3
2018-01-05T06:51:35.629Z,984.33
2018-01-05T06:52:35.640Z,984.36
2018-01-05T06:53:35.655Z,984.33
2018-01-05T06:54:35.666Z,984.34
2018-01-05T06:55:35.682Z,984.35
2018-01-05T06:56:35.692Z,984.38
2018-01-05T06:57:35.706Z,984.4
2018-01-05T06:58:35.718Z,984.33
2018-01-05T06:59:35.732Z,984.43
2018-01-05T07:00:35.744Z,984.43
2018-01-05T07:01:35.758Z,984.45
2018-01-05T07:02:35.771Z,984.41
2018-01-05T07:03:35.827Z,984.46
2018-01-05T07:04:35.795Z,984.41
2018-01-05T07:05:35.810Z,984.41
2018-01-05T07:06:35.819Z,984.45
2018-01-05T07:07:35.834Z,984.51
2018-01-05T07:08:35.847Z,984.43
2018-01-05T07:09:35.859Z,984.45
2018-01-05T07:10:35.871Z,984.44
2018-01-05T07:11:35.884Z,984.39
2018-01-05T07:12:35.897Z,984.42
2018-01-05T07:13:35.914Z,984.42
2018-01-05T07:14:35.922Z,984.43
2018-01-05T07:15:35.935Z,984.36
2018-01-05T07:16:35.949Z,984.4
2018-01-05T07:17:35.960Z,984.42
2018-01-05T07:18:35.973Z,984.43
2018-01-05T07:19:35.993Z,984.47
2018-01-05T07:20:36.003Z,984.45
2018-01-05T07:21:36.012Z,984.53
2018-01-05T07:22:36.026Z,984.51
2018-01-05T07:23:36.042Z,984.53
2018-01-05T07:24:36.056Z,984.43
2018-01-05T07:25:36.062Z,984.45
2018-01-05T07:26:36.076Z,984.42
2018-01-05T07:27:36.089Z,984.46
2018-01-05T07:28:36.103Z,984.44
2018-01-05T07:29:36.113Z,984.47
2018-01-05T07:30:36.126Z,984.47
2018-01-05T07:31:36.140Z,984.49
2018-01-05T07:32:36.159Z,984.48
2018-01-05T07:33:36.178Z,984.52
2018-01-05T07:34:36.186Z,984.55
2018-01-05T07:35:36.192Z,984.58
2018-01-05T07:36:36.203Z,984.55
2018-01-05T07:37:36.217Z,984.53
2018-01-05T07:38:36.229Z,984.51
2018-01-05T07:39:36.241Z,984.5
2018-01-05T07:40:36.254Z,984.56
2018-01-05T07:41:36.267Z,984.56
2018-01-05T07:42:36.280Z,984.53
2018-01-05T07:43:36.291Z,984.53
2018-01-05T07:44:36.306Z,984.54
2018-01-05T07:45:36.318Z,984.58
2018-01-05T07:46:36.332Z,984.62
2018-01-05T07:47:36.343Z,984.63
2018-01-05T07:48:36.356Z,984.63
2018-01-05T07:49:36.371Z,984.63
2018-01-05T07:50:36.382Z,984.64
2018-01-05T07:51:36.395Z,984.62
2018-01-05T07:52:36.409Z,984.67
2018-01-05T07:53:36.421Z,984.69
2018-01-05T07:54:36.432Z,984.74
2018-01-05T07:55:36.446Z,984.7
2018-01-05T07:56:36.461Z,984.71
2018-01-05T07:57:36.472Z,984.69
2018-01-05T07:58:36.484Z,984.67
2018-01-05T07:59:36.497Z,984.62
2018-01-05T08:00:36.511Z,984.63
2018-01-05T08:01:36.523Z,984.68
2018-01-05T08:02:36.536Z,984.69
2018-01-05T08:03:36.549Z,984.66
2018-01-05T08:04:36.562Z,984.69
2018-01-05T08:05:36.574Z,984.69
2018-01-05T08:06:36.689Z,984.7
2018-01-05T08:07:36.601Z,984.67
2018-01-05T08:08:36.615Z,984.68
2018-01-05T08:09:36.627Z,984.71
2018-01-05T08:10:36.638Z,984.72
2018-01-05T08:11:36.703Z,984.68
2018-01-05T08:12:36.665Z,984.63
2018-01-05T08:13:36.677Z,984.6
2018-01-05T08:14:36.693Z,984.58
2018-01-05T08:15:36.704Z,984.54
2018-01-05T08:16:36.722Z,984.62
2018-01-05T08:17:36.730Z,984.54
2018-01-05T08:18:36.748Z,984.53
2018-01-05T08:19:36.755Z,984.5
2018-01-05T08:20:36.768Z,984.47
2018-01-05T08:21:36.807Z,984.46
2018-01-05T08:22:36.797Z,984.44
2018-01-05T08:23:36.807Z,984.4
2018-01-05T08:24:36.821Z,984.41
2018-01-05T08:25:36.834Z,984.48
2018-01-05T08:26:36.847Z,984.56
2018-01-05T08:27:36.858Z,984.55
2018-01-05T08:28:36.873Z,984.55
2018-01-05T08:29:36.885Z,984.48
2018-01-05T08:30:36.902Z,984.47
2018-01-05T08:31:36.912Z,984.47
2018-01-05T08:32:36.925Z,984.43
2018-01-05T08:33:36.941Z,984.48
2018-01-05T08:34:36.950Z,984.47
2018-01-05T08:35:36.964Z,984.49
2018-01-05T08:36:36.978Z,984.52
2018-01-05T08:37:36.991Z,984.5
2018-01-05T08:38:37.003Z,984.51
2018-01-05T08:39:37.020Z,984.51
2018-01-05T08:40:37.033Z,984.45
2018-01-05T08:41:37.042Z,984.47
2018-01-05T08:42:37.057Z,984.49
2018-01-05T08:43:37.069Z,984.36
2018-01-05T08:44:37.082Z,984.47
2018-01-05T08:45:37.096Z,984.46
2018-01-05T08:46:37.108Z,984.4
2018-01-05T08:47:37.121Z,984.45
2018-01-05T08:48:37.135Z,984.47
2018-01-05T08:49:37.147Z,984.48
2018-01-05T08:50:37.162Z,984.49
2018-01-05T08:51:37.174Z,984.5
2018-01-05T08:52:37.185Z,984.46
2018-01-05T08:53:37.199Z,984.44
2018-01-05T08:54:37.214Z,984.39
2018-01-05T08:55:37.227Z,984.33
2018-01-05T08:56:37.239Z,984.32
2018-01-05T08:57:37.252Z,984.37
2018-01-05T08:58:37.266Z,984.28
2018-01-05T08:59:37.280Z,984.37
2018-01-05T09:00:37.291Z,984.37
2018-01-05T09:01:37.307Z,984.29
2018-01-05T09:02:37.319Z,984.29
2018-01-05T09:03:37.332Z,984.34
2018-01-05T09:04:37.344Z,984.26
2018-01-05T09:05:37.361Z,984.28
2018-01-05T09:06:37.373Z,984.25
2018-01-05T09:07:37.387Z,984.26
2018-01-05T09:08:37.398Z,984.25
2018-01-05T09:09:37.411Z,984.26
2018-01-05T09:10:37.432Z,984.28
2018-01-05T09:11:37.441Z,984.26
2018-01-05T09:12:37.451Z,984.23
2018-01-05T09:13:37.464Z,984.32
2018-01-05T09:14:37.477Z,984.26
2018-01-05T09:15:37.498Z,984.33
2018-01-05T09:16:37.506Z,984.35
2018-01-05T09:17:37.520Z,984.34
2018-01-05T09:18:37.531Z,984.34
2018-01-05T09:19:37.545Z,984.37
2018-01-05T09:20:37.563Z,984.45
2018-01-05T09:21:37.585Z,984.44
2018-01-05T09:22:37.591Z,984.39
2018-01-05T09:23:37.600Z,984.41
2018-01-05T09:24:37.611Z,984.28
2018-01-05T09:25:37.628Z,984.28
2018-01-05T09:26:37.642Z,984.32
2018-01-05T09:27:37.651Z,984.38
2018-01-05T09:28:37.665Z,984.45
2018-01-05T09:29:37.677Z,984.49
2018-01-05T09:30:37.697Z,984.46
2018-01-05T09:31:37.711Z,984.56
2018-01-05T09:32:37.720Z,984.59
2018-01-05T09:33:37.731Z,984.57
2018-01-05T09:34:37.745Z,984.64
2018-01-05T09:35:37.757Z,984.58
2018-01-05T09:36:37.772Z,984.68
2018-01-05T09:37:37.786Z,984.75
2018-01-05T09:38:37.798Z,984.8
2018-01-05T09:39:37.849Z,984.75
2018-01-05T09:40:37.825Z,984.75
2018-01-05T09:41:37.839Z,984.85
2018-01-05T09:42:37.852Z,984.78
2018-01-05T09:43:37.866Z,984.81
2018-01-05T09:44:37.879Z,984.84
2018-01-05T09:45:37.895Z,984.82
2018-01-05T09:46:37.906Z,984.82
2018-01-05T09:47:37.920Z,984.84
2018-01-05T09:48:37.933Z,984.81
2018-01-05T09:49:37.946Z,984.82
2018-01-05T09:50:37.960Z,984.82
2018-01-05T09:51:37.973Z,984.83
2018-01-05T09:52:37.987Z,984.82
2018-01-05T09:53:38.000Z,984.78
2018-01-05T09:54:38.015Z,984.82
2018-01-05T09:55:38.027Z,984.78
2018-01-05T09:56:38.041Z,984.8
2018-01-05T09:57:38.055Z,984.87
2018-01-05T09:58:38.094Z,984.89
2018-01-05T09:59:38.082Z,984.88
2018-01-05T10:00:38.113Z,984.93
2018-01-05T10:01:38.110Z,984.92
2018-01-05T10:02:38.173Z,984.92
2018-01-05T10:03:38.135Z,984.9
2018-01-05T10:04:38.150Z,984.97
2018-01-05T10:05:38.164Z,984.95
2018-01-05T10:06:38.178Z,984.97
2018-01-05T10:07:38.192Z,985.03
2018-01-05T10:08:38.209Z,985.02
2018-01-05T10:09:38.220Z,984.99
2018-01-05T10:10:38.233Z,984.99
2018-01-05T10:11:38.248Z,984.99
2018-01-05T10:12:38.267Z,985.02
2018-01-05T10:13:38.273Z,985.05
2018-01-05T10:14:38.288Z,985.01
2018-01-05T10:15:38.302Z,985
2018-01-05T10:16:38.316Z,985
2018-01-05T10:17:38.329Z,985.06
2018-01-05T10:18:38.342Z,985.1
2018-01-05T10:19:38.357Z,985.07
2018-01-05T10:20:38.370Z,985.04
2018-01-05T10:21:38.384Z,985.07
2018-01-05T10:22:38.447Z,985.18
2018-01-05T10:23:38.413Z,985.16
2018-01-05T10:24:38.424Z,985.16
2018-01-05T10:25:38.439Z,985.22
2018-01-05T10:26:38.453Z,985.29
2018-01-05T10:27:38.465Z,985.3
2018-01-05T10:28:38.479Z,985.21
2018-01-05T10:29:38.494Z,985.24
2018-01-05T10:30:38.508Z,985.26
2018-01-05T10:31:38.522Z,985.24
2018-01-05T10:32:38.536Z,985.21
2018-01-05T10:33:38.549Z,985.19
2018-01-05T10:34:38.565Z,985.17
2018-01-05T10:35:38.576Z,985.13
2018-01-05T10:36:38.591Z,985.24
2018-01-05T10:37:38.605Z,985.28
2018-01-05T10:38:38.619Z,985.31
2018-01-05T10:39:38.634Z,985.21
2018-01-05T10:40:38.649Z,985.23
2018-01-05T10:41:38.663Z,985.19
2018-01-05T10:42:38.673Z,985.14
2018-01-05T10:43:38.697Z,985.14
2018-01-05T10:44:38.704Z,985.12
2018-01-05T10:45:38.719Z,985.13
2018-01-05T10:46:38.729Z,985.11
2018-01-05T10:47:38.745Z,985.06
2018-01-05T10:48:38.763Z,985.01
2018-01-05T10:49:38.795Z,985.09
2018-01-05T10:50:38.785Z,985.1
2018-01-05T10:51:38.800Z,985.06
2018-01-05T10:52:38.813Z,985.17
2018-01-05T10:53:38.831Z,985.17
2018-01-05T10:54:38.842Z,985.18
2018-01-05T10:55:38.857Z,985.09
2018-01-05T10:56:38.870Z,985.01
2018-01-05T10:57:38.885Z,985.05
2018-01-05T10:58:38.899Z,985.1
2018-01-05T10:59:38.915Z,985.05
2018-01-05T11:00:38.959Z,985.08
2018-01-05T11:01:38.989Z,985.08
2018-01-05T11:02:38.954Z,985.09
2018-01-05T11:03:38.968Z,985.17
2018-01-05T11:04:38.982Z,985.21
2018-01-05T11:05:38.997Z,985.13
2018-01-05T11:06:39.012Z,985.05
2018-01-05T11:07:39.059Z,985.09
2018-01-05T11:08:39.040Z,985.07
2018-01-05T11:09:39.055Z,984.98
2018-01-05T11:10:39.069Z,984.97
2018-01-05T11:11:39.082Z,984.97
2018-01-05T11:12:39.099Z,985.04
2018-01-05T11:13:39.141Z,985.14
2018-01-05T11:14:39.126Z,985.28
2018-01-05T11:15:39.139Z,985.36
2018-01-05T11:16:39.154Z,985.36
2018-01-05T11:17:39.169Z,985.38
2018-01-05T11:18:39.183Z,985.22
2018-01-05T11:19:39.196Z,985.16
2018-01-05T11:20:39.212Z,985.13
2018-01-05T11:21:39.228Z,985.14
2018-01-05T11:22:39.241Z,985.17
2018-01-05T11:23:39.254Z,985.12
2018-01-05T11:24:39.270Z,985.04
2018-01-05T11:25:39.284Z,984.99
2018-01-05T11:26:39.297Z,985.01
2018-01-05T11:27:39.312Z,985.02
2018-01-05T11:28:39.373Z,984.99
2018-01-05T11:29:39.340Z,985.03
2018-01-05T11:30:39.356Z,984.93
2018-01-05T11:31:39.372Z,985
2018-01-05T11:32:39.386Z,985
2018-01-05T11:33:39.398Z,984.98
2018-01-05T11:34:39.412Z,985.05
2018-01-05T11:35:39.426Z,984.96
2018-01-05T11:36:39.451Z,985.04
2018-01-05T11:37:39.456Z,985.09
2018-01-05T11:38:39.469Z,985.1
2018-01-05T11:39:39.484Z,985.07
2018-01-05T11:40:39.500Z,985.03
2018-01-05T11:41:39.513Z,985.08
2018-01-05T11:42:39.529Z,985.03
2018-01-05T11:43:39.543Z,985.02
2018-01-05T11:44:39.557Z,985.13
2018-01-05T11:45:39.573Z,985.08
2018-01-05T11:46:39.586Z,985.1
2018-01-05T11:47:39.601Z,985.17
2018-01-05T11:48:39.620Z,985.2
2018-01-05T11:49:39.630Z,985.17
2018-01-05T11:50:39.655Z,985.17
2018-01-05T11:51:39.658Z,985.16
2018-01-05T11:52:39.673Z,985.22
2018-01-05T11:53:39.737Z,985.24
2018-01-05T11:54:39.703Z,985.24
2018-01-05T11:55:39.716Z,985.27
2018-01-05T11:56:39.736Z,985.27
2018-01-05T11:57:39.745Z,985.37
2018-01-05T11:58:39.761Z,985.41
2018-01-05T11:59:39.776Z,985.4
2018-01-05T12:00:39.790Z,985.44
2018-01-05T12:01:39.805Z,985.38
2018-01-05T12:02:39.818Z,985.42
2018-01-05T12:03:39.834Z,985.33
2018-01-05T12:04:39.848Z,985.37
2018-01-05T12:05:39.864Z,985.38
2018-01-05T12:06:39.877Z,985.39
2018-01-05T12:07:39.893Z,985.38
2018-01-05T12:08:39.907Z,985.45
2018-01-05T12:09:39.926Z,985.45
2018-01-05T12:10:39.937Z,985.45
2018-01-05T12:11:39.951Z,985.48
2018-01-05T12:12:39.966Z,985.51
2018-01-05T12:13:39.981Z,985.57
2018-01-05T12:14:39.994Z,985.56
2018-01-05T12:15:40.012Z,985.58
2018-01-05T12:16:40.025Z,985.59
2018-01-05T12:17:40.039Z,985.58
2018-01-05T12:18:40.056Z,985.59
2018-01-05T12:19:40.069Z,985.55
2018-01-05T12:20:40.083Z,985.6
2018-01-05T12:21:40.103Z,985.65
2018-01-05T12:22:40.112Z,985.59
2018-01-05T12:23:40.131Z,985.61
2018-01-05T12:24:40.141Z,985.63
2018-01-05T12:25:40.156Z,985.58
2018-01-05T12:26:40.170Z,985.57
2018-01-05T12:27:40.187Z,985.61
2018-01-05T12:28:40.200Z,985.57
2018-01-05T12:29:40.215Z,985.57
2018-01-05T12:30:40.230Z,985.64
2018-01-05T12:31:40.245Z,985.63